Time;durP1;ratioP1;P1;durP2;ratioP2;P2;SDS_P1;SDS_P2;PMS_P1;PMS_P2;Temp;Humidity;BMP_temperature;BMP_pressure;BME280_temperature;BME280_humidity;BME280_pressure;Samples;Min_cycle;Max_cycle;Signal;HPM_P1;HPM_P2
2021/08/31 00:05:57;;;;;;;6.70;6.10;;;;;;;13.59;85.88;98761.27;463489;1194;145375;-60
2021/08/31 00:16:01;;;;;;;7.90;6.90;;;;;;;13.56;85.88;98769.59;473010;1183;142254;-60
2021/08/31 00:26:04;;;;;;;10.00;7.20;;;;;;;13.52;86.09;98767.26;472000;1193;141899;-60
2021/08/31 00:36:08;;;;;;;10.50;9.50;;;;;;;13.52;86.21;98762.75;472775;1194;142920;-61
2021/08/31 00:46:11;;;;;;;8.40;7.60;;;;;;;13.46;86.16;98752.35;473030;1182;140704;-61
2021/08/31 00:56:16;;;;;;;9.10;8.10;;;;;;;13.40;86.37;98726.86;472064;1194;142022;-61
2021/08/31 01:06:19;;;;;;;10.20;9.20;;;;;;;13.37;86.57;98741.70;472777;1194;142681;-61
2021/08/31 01:16:23;;;;;;;11.80;9.50;;;;;;;13.37;86.70;98754.71;467037;1194;195368;-59
2021/08/31 01:26:28;;;;;;;7.50;6.80;;;;;;;13.38;86.91;98750.59;461678;1195;145553;-61
2021/08/31 01:36:31;;;;;;;8.20;7.40;;;;;;;13.37;87.09;98741.70;472743;1194;141680;-61
2021/08/31 01:46:34;;;;;;;8.70;7.90;;;;;;;13.38;87.20;98735.29;472817;1194;143396;-61
2021/08/31 01:56:39;;;;;;;7.70;6.90;;;;;;;13.44;87.26;98726.99;471932;1194;141795;-61
2021/08/31 02:06:42;;;;;;;7.80;7.10;;;;;;;13.47;87.33;98713.62;472706;1194;195297;-61
2021/08/31 02:16:45;;;;;;;8.00;6.50;;;;;;;13.52;87.44;98709.41;472050;1194;141273;-60
2021/08/31 02:26:49;;;;;;;5.70;5.20;;;;;;;13.54;87.58;98703.13;472681;1194;145085;-60
2021/08/31 02:36:52;;;;;;;6.40;5.90;;;;;;;13.59;87.52;98694.02;472701;1194;141779;-61
2021/08/31 02:46:55;;;;;;;6.90;6.20;;;;;;;13.60;87.72;98687.30;471476;1194;141934;-61
2021/08/31 02:56:59;;;;;;;9.50;8.40;;;;;;;13.60;87.95;98683.58;460437;1194;141594;-60
2021/08/31 03:07:04;;;;;;;8.40;7.70;;;;;;;13.61;88.16;98684.05;461460;1194;142259;-60
2021/08/31 03:17:08;;;;;;;11.70;10.50;;;;;;;13.61;88.45;98682.80;472104;1191;141696;-61
2021/08/31 03:27:11;;;;;;;11.70;10.70;;;;;;;13.65;88.42;98684.39;472645;1194;142091;-61
2021/08/31 03:37:14;;;;;;;10.70;9.60;;;;;;;13.69;88.40;98686.11;465894;1194;142981;-60
2021/08/31 03:47:17;;;;;;;10.50;9.50;;;;;;;13.72;88.49;98690.58;471240;1193;142133;-61
2021/08/31 03:57:22;;;;;;;9.20;8.40;;;;;;;13.74;88.50;98691.26;470369;1194;141891;-60
2021/08/31 04:07:25;;;;;;;7.30;6.60;;;;;;;13.77;88.56;98700.02;460812;1194;140844;-60
2021/08/31 04:17:28;;;;;;;7.80;7.10;;;;;;;13.79;88.58;98707.21;471783;1194;141478;-62
2021/08/31 04:27:33;;;;;;;8.10;7.40;;;;;;;13.86;88.64;98707.77;472862;1190;144178;-61
2021/08/31 04:37:36;;;;;;;8.10;7.10;;;;;;;13.94;88.51;98710.03;472362;1194;140978;-61
2021/08/31 04:47:39;;;;;;;8.00;7.20;;;;;;;13.99;88.47;98709.94;472562;1194;140672;-61
2021/08/31 04:57:43;;;;;;;8.20;7.50;;;;;;;14.09;88.48;98715.91;472493;1194;140819;-61
2021/08/31 05:07:47;;;;;;;6.80;5.40;;;;;;;14.18;88.43;98716.55;471631;1194;142915;-61
2021/08/31 05:17:50;;;;;;;6.90;6.30;;;;;;;14.25;88.32;98718.33;472695;1194;142280;-61
2021/08/31 05:27:54;;;;;;;3.90;3.60;;;;;;;14.37;88.37;98721.95;472524;1193;141870;-62
2021/08/31 05:37:57;;;;;;;4.90;4.40;;;;;;;14.69;88.26;98727.45;471858;1194;143923;-61
2021/08/31 05:48:01;;;;;;;7.70;6.60;;;;;;;14.80;87.79;98729.56;472691;1193;141893;-61
2021/08/31 05:58:04;;;;;;;8.30;7.60;;;;;;;14.80;87.46;98730.28;472662;1194;141246;-61
2021/08/31 06:08:07;;;;;;;8.60;7.80;;;;;;;14.83;87.35;98729.65;472067;1194;141657;-61
2021/08/31 06:18:11;;;;;;;9.00;8.30;;;;;;;14.99;87.19;98731.13;472827;1194;142724;-61
2021/08/31 06:28:14;;;;;;;11.60;10.60;;;;;;;15.22;86.99;98729.22;472765;1194;141432;-61
2021/08/31 06:38:18;;;;;;;10.60;9.60;;;;;;;16.52;87.84;98726.31;471364;1194;141706;-61
2021/08/31 06:48:23;;;;;;;8.80;8.10;;;;;;;22.66;80.83;98706.52;472242;1195;142168;-62
2021/08/31 06:58:26;;;;;;;9.00;8.10;;;;;;;22.31;73.56;98703.17;463806;1196;145338;-61
2021/08/31 07:08:30;;;;;;;6.10;5.60;;;;;;;20.41;73.69;98711.70;471840;1194;141978;-61
2021/08/31 07:18:33;;;;;;;7.10;6.50;;;;;;;19.42;74.30;98718.20;472427;1194;142080;-60
2021/08/31 07:28:36;;;;;;;5.30;4.90;;;;;;;18.37;75.29;98713.10;471136;1194;140190;-57
2021/08/31 07:38:59;;;;;;;4.30;4.00;;;;;;;17.66;76.52;98728.30;472641;1194;141313;-58
2021/08/31 07:49:03;;;;;;;4.20;3.80;;;;;;;17.87;76.33;98727.48;472662;1194;141434;-60
2021/08/31 07:59:06;;;;;;;4.50;4.00;;;;;;;18.15;75.82;98725.52;471879;1194;143135;-58
2021/08/31 08:09:10;;;;;;;4.70;4.40;;;;;;;17.79;75.91;98734.55;471778;1194;141375;-59
2021/08/31 08:19:13;;;;;;;3.60;3.30;;;;;;;17.17;77.15;98742.66;472212;1191;141755;-58
2021/08/31 08:29:16;;;;;;;3.60;3.30;;;;;;;16.96;78.00;98753.49;471879;1194;141729;-58
2021/08/31 08:39:20;;;;;;;4.50;4.10;;;;;;;16.73;78.43;98762.38;472520;1194;141767;-57
2021/08/31 08:49:24;;;;;;;3.80;3.10;;;;;;;16.83;79.14;98755.53;456037;1195;141350;-58
2021/08/31 08:59:29;;;;;;;2.20;2.00;;;;;;;17.39;78.76;98756.32;472228;1190;141968;-57
2021/08/31 09:09:32;;;;;;;2.20;1.90;;;;;;;17.74;78.19;98760.23;472729;1193;141301;-58
2021/08/31 09:19:37;;;;;;;2.00;1.80;;;;;;;19.08;77.08;98757.83;472733;1194;140930;-62
2021/08/31 09:29:41;;;;;;;2.90;1.70;;;;;;;20.40;73.51;98766.18;472685;1194;141312;-62
2021/08/31 09:39:44;;;;;;;1.50;1.40;;;;;;;20.25;72.35;98765.14;472627;1194;140624;-63
2021/08/31 09:49:47;;;;;;;2.30;1.40;;;;;;;20.29;71.38;98777.62;472028;1191;141922;-63
2021/08/31 09:59:50;;;;;;;1.10;1.10;;;;;;;20.22;70.25;98780.63;470978;1194;142028;-63
2021/08/31 10:09:54;;;;;;;3.60;2.00;;;;;;;20.05;70.03;98792.58;459722;1194;141949;-63
2021/08/31 10:20:00;;;;;;;1.30;1.20;;;;;;;20.23;70.14;98794.20;464555;1194;193677;-61
2021/08/31 10:30:36;;;;;;;1.80;1.70;;;;;;;20.57;68.62;98798.05;467948;1194;145274;-61
2021/08/31 10:40:41;;;;;;;3.00;2.30;;;;;;;19.82;69.04;98808.25;468014;1194;145294;-58
2021/08/31 10:50:49;;;;;;;2.30;2.10;;;;;;;18.43;71.06;98811.16;465941;1194;210609;-62
2021/08/31 11:00:55;;;;;;;4.40;4.10;;;;;;;17.99;73.08;98799.55;472805;1194;141926;-61
2021/08/31 11:10:59;;;;;;;2.90;2.60;;;;;;;18.14;74.24;98803.20;472110;1194;140791;-62
2021/08/31 11:21:02;;;;;;;2.80;2.70;;;;;;;18.51;73.64;98810.79;473133;1187;141706;-61
2021/08/31 11:31:11;;;;;;;2.40;2.30;;;;;;;18.43;72.86;98806.48;472875;1194;141382;-61
2021/08/31 11:41:17;;;;;;;1.10;1.10;;;;;;;18.30;73.72;98805.76;471994;1194;141927;-60
2021/08/31 11:51:20;;;;;;;0.60;0.60;;;;;;;18.46;73.04;98819.99;472935;1194;142422;-64
2021/08/31 12:01:28;;;;;;;7.20;1.40;;;;;;;18.29;73.05;98817.07;472935;1194;142268;-67
2021/08/31 12:11:33;;;;;;;0.80;0.60;;;;;;;18.69;72.60;98821.36;472113;1194;144976;-60
2021/08/31 12:21:36;;;;;;;2.60;0.90;;;;;;;18.53;71.68;98821.64;472791;1194;144793;-60
2021/08/31 12:31:39;;;;;;;2.60;0.80;;;;;;;18.35;72.79;98817.95;472514;1184;142098;-54
2021/08/31 12:41:43;;;;;;;0.50;0.50;;;;;;;18.72;72.53;98818.91;471982;1194;142530;-56
2021/08/31 12:51:48;;;;;;;0.60;0.60;;;;;;;19.11;71.56;98820.70;472873;1194;141571;-61
2021/08/31 13:01:53;;;;;;;0.50;0.50;;;;;;;19.03;70.27;98828.13;472017;1194;141612;-58
2021/08/31 13:11:56;;;;;;;0.80;0.80;;;;;;;18.76;70.94;98833.02;472378;1190;141619;-60
2021/08/31 13:22:00;;;;;;;3.90;0.60;;;;;;;18.57;71.69;98826.83;472877;1194;141120;-61
2021/08/31 13:32:04;;;;;;;1.90;1.00;;;;;;;17.37;73.11;98840.00;472083;1194;142121;-64
2021/08/31 13:42:07;;;;;;;1.00;0.30;;;;;;;16.48;75.00;98838.23;471469;1187;141539;-61
2021/08/31 13:52:10;;;;;;;1.70;1.00;;;;;;;15.97;76.49;98842.59;472810;1194;141535;-59
2021/08/31 14:02:13;;;;;;;0.50;0.40;;;;;;;15.85;77.84;98845.60;472045;1194;141999;-61
2021/08/31 14:12:17;;;;;;;0.50;0.40;;;;;;;15.89;78.10;98848.58;473041;1189;142094;-61
2021/08/31 14:22:20;;;;;;;0.70;0.50;;;;;;;15.70;78.77;98848.34;462555;1194;141192;-59
2021/08/31 14:32:24;;;;;;;1.10;0.50;;;;;;;15.51;79.43;98862.25;466855;1190;142037;-59
2021/08/31 14:42:27;;;;;;;2.50;2.40;;;;;;;15.27;79.96;98865.63;472947;1192;141028;-61
2021/08/31 14:52:31;;;;;;;6.00;5.50;;;;;;;14.89;80.60;98885.42;470494;1195;141935;-62
2021/08/31 15:02:36;;;;;;;5.60;5.20;;;;;;;14.76;81.08;98898.55;463314;1194;10001590;-63
2021/08/31 15:12:39;;;;;;;4.70;4.40;;;;;;;14.64;81.26;98908.92;472666;1182;142065;-67
2021/08/31 15:22:42;;;;;;;5.10;4.70;;;;;;;14.53;81.75;98923.67;471749;1191;142693;-65
2021/08/31 15:32:46;;;;;;;4.10;3.80;;;;;;;14.46;82.23;98919.96;472133;1194;142308;-61
2021/08/31 15:42:50;;;;;;;3.90;3.60;;;;;;;14.46;82.46;98923.79;472541;1193;141940;-64
2021/08/31 15:52:53;;;;;;;3.40;3.20;;;;;;;14.50;82.61;98931.86;471638;1191;141948;-62
2021/08/31 16:03:11;;;;;;;3.40;3.10;;;;;;;14.45;82.90;98941.81;472842;1183;141666;-61
2021/08/31 16:13:14;;;;;;;3.60;2.10;;;;;;;14.35;83.07;98949.31;472605;1194;142130;-62
2021/08/31 16:23:19;;;;;;;2.60;1.90;;;;;;;14.30;83.10;98964.10;468394;1194;141713;-59
2021/08/31 16:33:22;;;;;;;2.20;1.10;;;;;;;14.30;83.21;98969.55;468782;1194;141446;-62
2021/08/31 16:43:25;;;;;;;1.30;1.20;;;;;;;14.33;83.49;98979.92;464572;1194;141504;-60
2021/08/31 16:53:31;;;;;;;4.60;1.60;;;;;;;14.33;83.48;98984.79;462307;1194;140872;-61
2021/08/31 17:03:34;;;;;;;3.30;2.90;;;;;;;14.30;83.63;98993.34;472886;1191;142242;-62
2021/08/31 17:13:38;;;;;;;1.20;1.10;;;;;;;14.25;83.69;99005.92;472342;1194;142149;-59
2021/08/31 17:23:44;;;;;;;1.50;1.40;;;;;;;14.20;83.70;99008.80;472285;1194;210032;-61
2021/08/31 17:33:50;;;;;;;2.60;1.70;;;;;;;14.13;83.79;99022.08;466618;1194;141670;-60
2021/08/31 17:43:53;;;;;;;1.50;1.40;;;;;;;14.07;83.87;99035.10;471836;1194;141406;-61
2021/08/31 17:53:59;;;;;;;1.70;1.60;;;;;;;14.01;83.89;99047.44;472633;1194;142334;-61
2021/08/31 18:04:03;;;;;;;1.90;1.80;;;;;;;13.98;83.89;99068.50;472284;1194;142317;-61
2021/08/31 18:14:09;;;;;;;2.10;1.10;;;;;;;13.98;83.83;99078.86;471821;1194;141536;-63
2021/08/31 18:24:12;;;;;;;2.10;1.90;;;;;;;13.98;83.85;99095.03;470154;1184;142165;-61
2021/08/31 18:34:16;;;;;;;3.40;2.90;;;;;;;13.95;83.98;99106.02;472590;1193;141191;-62
2021/08/31 18:44:19;;;;;;;2.20;2.00;;;;;;;13.89;83.95;99115.68;471423;1194;141302;-62
2021/08/31 18:54:24;;;;;;;3.60;3.20;;;;;;;13.86;83.98;99125.65;472641;1194;141140;-61
2021/08/31 19:04:27;;;;;;;3.80;3.40;;;;;;;13.82;84.31;99130.69;453127;1194;10002695;-59
2021/08/31 19:14:31;;;;;;;3.80;3.30;;;;;;;13.77;84.55;99130.09;458945;1194;142097;-59
2021/08/31 19:24:34;;;;;;;5.80;3.90;;;;;;;13.72;84.72;99125.34;459791;1194;142347;-59
2021/08/31 19:34:40;;;;;;;2.80;2.50;;;;;;;13.67;84.94;99124.02;455931;1194;141488;-60
2021/08/31 19:44:44;;;;;;;7.70;3.70;;;;;;;13.58;85.21;99128.48;462658;1194;143929;-62
2021/08/31 19:54:48;;;;;;;2.30;2.10;;;;;;;13.48;85.27;99132.30;472104;1194;141482;-64
2021/08/31 20:04:51;;;;;;;7.30;2.50;;;;;;;13.41;85.55;99142.84;455187;1194;142080;-65
2021/08/31 20:14:55;;;;;;;2.90;2.40;;;;;;;13.36;85.90;99150.63;457877;1194;142823;-64
2021/08/31 20:25:00;;;;;;;6.00;5.00;;;;;;;13.34;86.18;99164.20;472193;1194;144556;-65
2021/08/31 20:35:04;;;;;;;5.40;4.80;;;;;;;13.34;86.38;99170.39;465997;1191;141785;-64
2021/08/31 20:45:13;;;;;;;3.30;3.00;;;;;;;13.34;86.69;99178.11;471933;1194;142447;-64
2021/08/31 20:55:16;;;;;;;2.90;2.70;;;;;;;13.37;86.61;99188.54;460815;1194;142226;-63
2021/08/31 21:05:20;;;;;;;2.90;2.60;;;;;;;13.38;86.88;99192.38;455484;1194;144522;-65
2021/08/31 21:15:24;;;;;;;2.00;1.60;;;;;;;13.36;87.04;99199.70;458739;1194;141489;-65
2021/08/31 21:25:28;;;;;;;1.70;1.60;;;;;;;13.29;87.15;99205.50;472461;1194;141705;-65
2021/08/31 21:35:31;;;;;;;1.20;1.10;;;;;;;13.27;87.28;99214.66;469025;1194;141899;-64
2021/08/31 21:45:34;;;;;;;1.70;1.60;;;;;;;13.25;87.48;99221.55;469902;1190;142543;-63
2021/08/31 21:55:38;;;;;;;1.40;1.30;;;;;;;13.21;87.52;99231.30;465575;1182;141288;-63
2021/08/31 22:05:42;;;;;;;1.90;1.70;;;;;;;13.15;87.65;99235.29;457298;1194;140993;-63
2021/08/31 22:15:45;;;;;;;3.40;3.10;;;;;;;13.09;87.93;99240.00;455705;1193;141844;-65
2021/08/31 22:25:49;;;;;;;3.30;2.90;;;;;;;13.06;88.03;99239.44;461816;1194;141857;-63
2021/08/31 22:35:52;;;;;;;3.40;3.10;;;;;;;13.02;88.18;99249.35;458072;1194;141481;-64
2021/08/31 22:45:56;;;;;;;3.20;2.90;;;;;;;12.97;88.16;99258.56;472870;1194;141044;-64
2021/08/31 22:56:00;;;;;;;3.90;3.50;;;;;;;12.89;88.42;99264.41;464881;1194;142660;-61
2021/08/31 23:06:04;;;;;;;2.90;2.30;;;;;;;12.82;88.42;99263.40;463210;1194;141029;-59
2021/08/31 23:16:07;;;;;;;3.90;3.60;;;;;;;12.75;88.43;99265.48;465162;1194;141646;-61
2021/08/31 23:26:11;;;;;;;3.40;2.80;;;;;;;12.69;88.67;99263.83;457551;1194;141686;-61
2021/08/31 23:36:15;;;;;;;4.40;4.00;;;;;;;12.67;88.71;99265.41;467625;1194;141971;-60
2021/08/31 23:46:18;;;;;;;5.10;4.20;;;;;;;12.64;88.83;99274.46;464752;1194;141760;-61
2021/08/31 23:56:22;;;;;;;6.40;3.40;;;;;;;12.61;88.83;99277.11;471978;1194;141536;-61
